createdAt,value
2018-04-06T00:00:04.637Z,75.40
2018-04-06T00:02:32.157Z,75.70
2018-04-06T00:04:59.711Z,75.90
2018-04-06T00:07:27.227Z,75.70
2018-04-06T00:09:54.746Z,75.70
2018-04-06T00:12:22.290Z,75.80
2018-04-06T00:14:49.807Z,75.90
2018-04-06T00:17:17.349Z,75.80
2018-04-06T00:19:44.865Z,75.90
2018-04-06T00:22:12.401Z,76.80
2018-04-06T00:24:40.684Z,77.20
2018-04-06T00:27:08.995Z,77.00
2018-04-06T00:29:36.518Z,77.00
2018-04-06T00:32:04.829Z,76.80
2018-04-06T00:34:32.341Z,76.80
2018-04-06T00:36:59.885Z,76.90
2018-04-06T00:39:27.393Z,76.40
2018-04-06T00:41:54.977Z,76.00
2018-04-06T00:44:23.221Z,76.30
2018-04-06T00:46:51.531Z,76.20
2018-04-06T00:49:19.055Z,76.10
2018-04-06T00:51:47.362Z,76.30
2018-04-06T00:54:14.873Z,76.20
2018-04-06T00:56:42.424Z,76.50
2018-04-06T00:59:09.935Z,76.40
2018-04-06T01:01:37.481Z,77.00
2018-04-06T01:04:05.761Z,76.40
2018-04-06T01:06:34.071Z,76.40
2018-04-06T01:09:01.590Z,76.40
2018-04-06T01:11:29.870Z,76.40
2018-04-06T01:13:58.799Z,77.00
2018-04-06T01:16:27.141Z,77.00
2018-04-06T01:18:55.448Z,77.40
2018-04-06T01:21:22.964Z,77.30
2018-04-06T01:23:51.277Z,77.60
2018-04-06T01:26:18.794Z,77.60
2018-04-06T01:28:46.330Z,77.60
2018-04-06T01:31:13.837Z,77.10
2018-04-06T01:33:42.149Z,76.70
2018-04-06T01:36:09.662Z,77.40
2018-04-06T01:38:37.974Z,76.70
2018-04-06T01:41:05.491Z,76.60
2018-04-06T01:43:33.038Z,76.70
2018-04-06T01:46:00.558Z,76.50
2018-04-06T01:48:28.105Z,76.70
2018-04-06T01:50:55.621Z,76.80
2018-04-06T01:53:23.165Z,76.90
2018-04-06T01:55:50.745Z,77.50
2018-04-06T01:58:18.288Z,76.80
2018-04-06T02:00:45.822Z,77.80
2018-04-06T02:03:13.366Z,77.30
2018-04-06T02:05:40.886Z,77.20
2018-04-06T02:08:08.445Z,77.50
2018-04-06T02:10:35.974Z,77.30
2018-04-06T02:13:03.522Z,77.70
2018-04-06T02:15:31.034Z,77.30
2018-04-06T02:17:59.326Z,77.50
2018-04-06T02:20:27.641Z,76.50
2018-04-06T02:22:55.157Z,76.50
2018-04-06T02:25:23.461Z,76.90
2018-04-06T02:27:50.981Z,76.90
2018-04-06T02:30:18.541Z,77.60
2018-04-06T02:32:46.829Z,78.20
2018-04-06T02:35:15.154Z,78.40
2018-04-06T02:37:42.667Z,78.40
2018-04-06T02:40:10.992Z,78.60
2018-04-06T02:42:38.510Z,78.50
2018-04-06T02:45:06.821Z,78.70
2018-04-06T02:47:34.338Z,78.70
2018-04-06T02:50:02.650Z,77.70
2018-04-06T02:52:30.162Z,77.60
2018-04-06T02:54:57.702Z,77.60
2018-04-06T02:57:25.215Z,78.50
2018-04-06T02:59:52.772Z,78.80
2018-04-06T03:02:20.291Z,79.00
2018-04-06T03:04:47.829Z,78.70
2018-04-06T03:07:15.341Z,78.70
2018-04-06T03:09:43.648Z,77.60
2018-04-06T03:12:11.162Z,77.60
2018-04-06T03:14:38.714Z,77.50
2018-04-06T03:17:06.265Z,77.20
2018-04-06T03:19:33.781Z,77.60
2018-04-06T03:22:01.326Z,77.40
2018-04-06T03:24:29.610Z,78.20
2018-04-06T03:26:57.918Z,78.80
2018-04-06T03:29:25.430Z,78.80
2018-04-06T03:31:53.744Z,77.80
2018-04-06T03:34:21.257Z,77.70
2018-04-06T03:36:48.802Z,78.30
2018-04-06T03:39:16.332Z,78.60
2018-04-06T03:41:43.874Z,78.40
2018-04-06T03:44:11.390Z,78.70
2018-04-06T03:46:38.932Z,78.60
2018-04-06T03:49:06.442Z,79.10
2018-04-06T03:51:34.746Z,79.60
2018-04-06T03:54:02.265Z,79.50
2018-04-06T03:56:30.569Z,79.70
2018-04-06T03:58:58.082Z,79.60
2018-04-06T04:01:25.635Z,79.70
2018-04-06T04:03:53.141Z,79.70
2018-04-06T04:06:20.682Z,79.80
2018-04-06T04:08:48.965Z,79.90
2018-04-06T04:11:17.279Z,79.80
2018-04-06T04:13:44.806Z,79.70
2018-04-06T04:16:13.110Z,78.20
2018-04-06T04:18:40.626Z,78.20
2018-04-06T04:21:08.170Z,78.50
2018-04-06T04:23:35.690Z,79.00
2018-04-06T04:26:03.212Z,79.20
2018-04-06T04:28:30.753Z,79.10
2018-04-06T04:30:58.273Z,79.70
2018-04-06T04:33:25.816Z,79.40
2018-04-06T04:35:53.332Z,78.90
2018-04-06T04:38:20.875Z,78.60
2018-04-06T04:40:48.393Z,79.60
2018-04-06T04:43:15.937Z,80.10
2018-04-06T04:45:44.282Z,80.10
2018-04-06T04:48:12.590Z,80.20
2018-04-06T04:50:40.250Z,80.20
2018-04-06T04:53:08.921Z,80.40
2018-04-06T04:55:36.525Z,80.30
2018-04-06T04:58:04.080Z,79.30
2018-04-06T05:00:31.605Z,78.90
2018-04-06T05:02:59.148Z,78.70
2018-04-06T05:05:26.672Z,78.70
2018-04-06T05:07:54.219Z,78.60
2018-04-06T05:10:22.594Z,78.60
2018-04-06T05:12:50.915Z,78.60
2018-04-06T05:15:18.797Z,78.60
2018-04-06T05:17:46.414Z,78.40
2018-04-06T05:20:13.934Z,78.90
2018-04-06T05:22:41.542Z,79.30
2018-04-06T05:25:09.057Z,79.30
2018-04-06T05:27:36.579Z,79.50
2018-04-06T05:30:04.219Z,79.60
2018-04-06T05:32:31.750Z,79.80
2018-04-06T05:35:00.073Z,80.00
2018-04-06T05:37:27.811Z,80.00
2018-04-06T05:39:55.434Z,80.30
2018-04-06T05:42:23.045Z,80.30
2018-04-06T05:44:50.815Z,79.70
2018-04-06T05:47:18.346Z,79.70
2018-04-06T05:49:45.910Z,79.50
2018-04-06T05:52:14.200Z,80.40
2018-04-06T05:54:41.758Z,80.30
2018-04-06T05:57:10.038Z,81.90
2018-04-06T05:59:38.349Z,82.60
2018-04-06T06:02:05.871Z,82.60
2018-04-06T06:04:34.185Z,81.80
2018-04-06T06:07:01.707Z,81.70
2018-04-06T06:09:30.028Z,81.40
2018-04-06T06:11:57.551Z,81.30
2018-04-06T06:14:25.858Z,80.50
2018-04-06T06:16:53.375Z,80.50
2018-04-06T06:19:21.700Z,80.40
2018-04-06T06:21:49.226Z,80.40
2018-04-06T06:24:16.773Z,79.90
2018-04-06T06:26:45.059Z,79.90
2018-04-06T06:29:13.436Z,80.00
2018-04-06T06:31:40.920Z,80.70
2018-04-06T06:34:08.434Z,79.10
2018-04-06T06:36:35.985Z,78.70
2018-04-06T06:39:03.507Z,78.90
2018-04-06T06:41:31.054Z,79.00
2018-04-06T06:43:58.566Z,78.90
2018-04-06T06:46:26.111Z,79.20
2018-04-06T06:48:53.631Z,79.70
2018-04-06T06:51:21.182Z,79.30
2018-04-06T06:53:49.462Z,78.70
2018-04-06T06:56:17.001Z,78.60
2018-04-06T06:58:45.282Z,79.30
2018-04-06T07:01:13.596Z,78.50
2018-04-06T07:03:41.110Z,78.50
2018-04-06T07:06:08.655Z,78.40
2018-04-06T07:08:36.172Z,78.60
2018-04-06T07:11:03.713Z,78.20
2018-04-06T07:13:35.182Z,78.70
2018-04-06T07:16:02.722Z,78.70
2018-04-06T07:18:31.001Z,77.20
2018-04-06T07:20:59.321Z,76.50
2018-04-06T07:23:26.842Z,76.50
2018-04-06T07:25:55.121Z,76.80
2018-04-06T07:28:23.430Z,76.10
2018-04-06T07:30:50.945Z,75.90
2018-04-06T07:33:19.259Z,75.40
2018-04-06T07:35:46.780Z,75.30
2018-04-06T07:38:15.099Z,75.80
2018-04-06T07:40:42.621Z,75.80
2018-04-06T07:43:10.940Z,74.80
2018-04-06T07:45:38.458Z,74.80
2018-04-06T07:48:06.001Z,73.90
2018-04-06T07:50:33.514Z,73.50
2018-04-06T07:53:01.064Z,73.80
2018-04-06T07:55:28.642Z,74.10
2018-04-06T07:57:56.202Z,73.10
2018-04-06T08:00:23.721Z,72.70
2018-04-06T08:02:52.029Z,71.80
2018-04-06T08:05:19.537Z,71.10
2018-04-06T08:07:47.072Z,70.60
2018-04-06T08:10:14.592Z,71.10
2018-04-06T08:12:42.906Z,70.70
2018-04-06T08:15:10.426Z,70.50
2018-04-06T08:17:38.730Z,69.70
2018-04-06T08:20:06.245Z,69.70
2018-04-06T08:22:33.796Z,68.90
2018-04-06T08:25:01.314Z,69.50
2018-04-06T08:27:28.835Z,67.80
2018-04-06T08:29:57.147Z,67.70
2018-04-06T08:32:24.668Z,67.70
2018-04-06T08:34:53.052Z,67.20
2018-04-06T08:37:20.532Z,67.00
2018-04-06T08:39:48.073Z,67.60
2018-04-06T08:42:16.361Z,67.30
2018-04-06T08:44:43.907Z,67.30
2018-04-06T08:47:12.189Z,67.20
2018-04-06T08:49:40.509Z,67.00
2018-04-06T08:52:08.025Z,67.00
2018-04-06T08:54:36.378Z,65.60
2018-04-06T08:57:03.874Z,65.50
2018-04-06T08:59:32.189Z,65.80
2018-04-06T09:01:59.704Z,65.80
2018-04-06T09:04:28.016Z,64.00
2018-04-06T09:06:55.530Z,63.90
2018-04-06T09:09:23.847Z,64.90
2018-04-06T09:11:51.361Z,64.30
2018-04-06T09:14:18.930Z,64.10
2018-04-06T09:16:46.446Z,63.30
2018-04-06T09:19:13.986Z,63.00
2018-04-06T09:21:41.512Z,63.00
2018-04-06T09:24:09.830Z,61.60
2018-04-06T09:26:37.351Z,61.50
2018-04-06T09:29:05.674Z,61.20
2018-04-06T09:31:33.195Z,61.10
2018-04-06T09:34:01.482Z,60.70
2018-04-06T09:36:29.035Z,60.60
2018-04-06T09:38:57.329Z,59.40
2018-04-06T09:41:24.872Z,59.40
2018-04-06T09:43:53.161Z,58.00
2018-04-06T09:46:21.469Z,58.20
2018-04-06T09:48:48.993Z,58.10
2018-04-06T09:51:17.309Z,57.40
2018-04-06T09:53:44.830Z,57.40
2018-04-06T09:56:13.146Z,55.70
2018-04-06T09:58:40.674Z,55.60
2018-04-06T10:01:08.986Z,56.30
2018-04-06T10:03:36.509Z,56.20
2018-04-06T10:06:04.868Z,56.10
2018-04-06T10:08:32.389Z,56.10
2018-04-06T10:10:59.944Z,54.70
2018-04-06T10:13:27.466Z,55.50
2018-04-06T10:15:55.793Z,54.10
2018-04-06T10:18:23.319Z,53.90
2018-04-06T10:20:50.874Z,54.20
2018-04-06T10:23:18.398Z,53.50
2018-04-06T10:25:45.942Z,54.00
2018-04-06T10:28:14.230Z,53.90
2018-04-06T10:30:41.778Z,53.90
2018-04-06T10:33:09.302Z,53.30
2018-04-06T10:35:36.854Z,51.70
2018-04-06T10:38:04.373Z,52.10
2018-04-06T10:40:31.928Z,51.50
2018-04-06T10:42:59.469Z,51.60
2018-04-06T10:45:26.996Z,50.50
2018-04-06T10:47:54.558Z,50.60
2018-04-06T10:50:22.081Z,50.40
2018-04-06T10:52:49.635Z,49.70
2018-04-06T10:55:17.157Z,49.80
2018-04-06T10:57:44.709Z,49.70
2018-04-06T11:00:12.258Z,49.70
2018-04-06T11:02:39.810Z,49.60
2018-04-06T11:05:07.335Z,49.90
2018-04-06T11:07:34.893Z,48.40
2018-04-06T11:10:02.418Z,47.90
2018-04-06T11:12:29.994Z,47.90
2018-04-06T11:14:57.509Z,47.40
2018-04-06T11:17:25.062Z,46.70
2018-04-06T11:19:53.354Z,45.00
2018-04-06T11:22:20.914Z,44.90
2018-04-06T11:24:48.433Z,45.00
2018-04-06T11:27:15.973Z,45.30
2018-04-06T11:29:43.489Z,44.30
2018-04-06T11:32:11.129Z,45.00
2018-04-06T11:34:38.573Z,44.80
2018-04-06T11:37:07.731Z,43.30
2018-04-06T11:39:35.254Z,43.20
2018-04-06T11:42:03.539Z,41.70
2018-04-06T11:44:31.864Z,41.70
2018-04-06T11:46:59.394Z,41.60
2018-04-06T11:49:26.946Z,40.40
2018-04-06T11:51:54.474Z,40.80
2018-04-06T11:54:22.018Z,40.00
2018-04-06T11:56:49.541Z,40.40
2018-04-06T11:59:17.091Z,40.80
2018-04-06T12:01:44.613Z,41.10
2018-04-06T12:04:12.163Z,40.30
2018-04-06T12:06:39.678Z,41.10
2018-04-06T12:09:07.281Z,40.10
2018-04-06T12:11:34.810Z,40.90
2018-04-06T12:14:02.359Z,40.60
2018-04-06T12:16:29.874Z,41.70
2018-04-06T12:18:57.428Z,40.90
2018-04-06T12:21:24.958Z,41.90
2018-04-06T12:23:52.502Z,42.40
2018-04-06T12:26:20.022Z,41.90
2018-04-06T12:28:47.579Z,41.50
2018-04-06T12:31:15.097Z,41.50
2018-04-06T12:33:42.655Z,41.40
2018-04-06T12:36:10.182Z,41.60
2018-04-06T12:38:38.501Z,41.90
2018-04-06T12:41:06.026Z,41.90
2018-04-06T12:43:33.570Z,41.60
2018-04-06T12:46:01.895Z,40.10
2018-04-06T12:48:29.426Z,40.10
2018-04-06T12:50:56.971Z,40.20
2018-04-06T12:53:25.268Z,40.30
2018-04-06T12:55:52.837Z,40.30
2018-04-06T12:58:20.353Z,39.70
2018-04-06T13:00:47.900Z,39.30
2018-04-06T13:03:15.432Z,39.80
2018-04-06T13:05:42.986Z,38.80
2018-04-06T13:08:10.504Z,38.90
2018-04-06T13:10:38.817Z,38.00
2018-04-06T13:13:06.387Z,38.00
2018-04-06T13:15:33.942Z,37.80
2018-04-06T13:18:01.483Z,38.30
2018-04-06T13:20:29.045Z,37.60
2018-04-06T13:22:56.586Z,36.60
2018-04-06T13:25:24.917Z,37.70
2018-04-06T13:27:52.462Z,37.70
2018-04-06T13:30:20.045Z,36.90
2018-04-06T13:32:47.583Z,37.00
2018-04-06T13:35:15.148Z,37.40
2018-04-06T13:37:42.687Z,36.70
2018-04-06T13:40:10.266Z,36.70
2018-04-06T13:42:37.818Z,36.60
2018-04-06T13:45:05.363Z,34.80
2018-04-06T13:47:33.675Z,36.30
2018-04-06T13:50:01.198Z,36.40
2018-04-06T13:52:29.510Z,35.20
2018-04-06T13:54:57.046Z,35.20
2018-04-06T13:57:24.606Z,33.90
2018-04-06T13:59:52.124Z,34.90
2018-04-06T14:02:19.670Z,32.90
2018-04-06T14:04:47.187Z,33.20
2018-04-06T14:07:14.734Z,33.50
2018-04-06T14:09:43.017Z,34.00
2018-04-06T14:12:11.339Z,32.40
2018-04-06T14:14:38.862Z,32.60
2018-04-06T14:17:06.434Z,31.90
2018-04-06T14:19:33.962Z,32.20
2018-04-06T14:22:02.281Z,33.20
2018-04-06T14:24:29.806Z,32.60
2018-04-06T14:26:57.373Z,32.00
2018-04-06T14:29:24.890Z,30.50
2018-04-06T14:31:52.435Z,31.10
2018-04-06T14:34:19.950Z,31.30
2018-04-06T14:36:48.262Z,31.20
2018-04-06T14:39:15.784Z,31.20
2018-04-06T14:41:44.098Z,30.00
2018-04-06T14:44:11.626Z,30.00
2018-04-06T14:46:39.943Z,29.90
2018-04-06T14:49:07.490Z,30.00
2018-04-06T14:51:35.010Z,29.30
2018-04-06T14:54:02.560Z,29.10
2018-04-06T14:56:30.081Z,29.00
2018-04-06T14:58:57.629Z,28.80
2018-04-06T15:01:25.159Z,28.20
2018-04-06T15:03:53.471Z,28.60
2018-04-06T15:06:21.049Z,28.60
2018-04-06T15:08:49.330Z,27.80
2018-04-06T15:11:16.854Z,27.80
2018-04-06T15:13:44.453Z,27.40
2018-04-06T15:16:11.977Z,27.60
2018-04-06T15:18:39.530Z,27.60
2018-04-06T15:21:07.050Z,27.60
2018-04-06T15:23:34.602Z,28.00
2018-04-06T15:26:02.130Z,27.10
2018-04-06T15:28:29.688Z,26.60
2018-04-06T15:30:57.258Z,26.20
2018-04-06T15:33:24.791Z,26.40
2018-04-06T15:35:53.100Z,26.00
2018-04-06T15:38:20.649Z,25.90
2018-04-06T15:40:48.171Z,25.80
2018-04-06T15:43:16.494Z,26.90
2018-04-06T15:45:44.013Z,26.90
2018-04-06T15:48:12.338Z,25.90
2018-04-06T15:50:39.861Z,25.90
2018-04-06T15:53:08.150Z,24.40
2018-04-06T15:55:35.703Z,24.40
2018-04-06T15:58:03.994Z,24.00
2018-04-06T16:00:31.563Z,24.00
2018-04-06T16:02:59.099Z,25.10
2018-04-06T16:05:26.654Z,25.40
2018-04-06T16:07:54.946Z,25.70
2018-04-06T16:10:22.498Z,25.70
2018-04-06T16:12:50.790Z,24.50
2018-04-06T16:15:18.341Z,24.60
2018-04-06T16:17:45.874Z,25.30
2018-04-06T16:20:13.441Z,26.20
2018-04-06T16:22:41.760Z,27.30
2018-04-06T16:25:09.311Z,27.30
2018-04-06T16:27:36.825Z,27.80
2018-04-06T16:30:04.376Z,28.20
2018-04-06T16:32:31.902Z,28.50
2018-04-06T16:34:59.446Z,28.80
2018-04-06T16:37:27.001Z,29.10
2018-04-06T16:39:55.315Z,29.00
2018-04-06T16:42:22.839Z,29.00
2018-04-06T16:44:50.388Z,29.00
2018-04-06T16:47:18.675Z,29.90
2018-04-06T16:49:46.242Z,29.40
2018-04-06T16:52:13.756Z,30.00
2018-04-06T16:54:41.306Z,30.70
2018-04-06T16:57:08.830Z,31.10
2018-04-06T16:59:36.352Z,31.50
2018-04-06T17:02:03.894Z,31.60
2018-04-06T17:04:31.422Z,31.80
2018-04-06T17:06:58.981Z,31.80
2018-04-06T17:09:26.505Z,32.10
2018-04-06T17:11:54.817Z,32.70
2018-04-06T17:14:22.338Z,32.80
2018-04-06T17:16:50.646Z,33.30
2018-04-06T17:19:18.162Z,33.20
2018-04-06T17:21:45.712Z,33.70
2018-04-06T17:24:13.234Z,34.00
2018-04-06T17:26:40.786Z,34.80
2018-04-06T17:29:08.313Z,35.40
2018-04-06T17:31:36.638Z,36.40
2018-04-06T17:34:04.171Z,36.40
2018-04-06T17:36:31.726Z,36.80
2018-04-06T17:39:00.015Z,37.60
2018-04-06T17:41:27.618Z,37.60
2018-04-06T17:43:55.150Z,38.00
2018-04-06T17:46:22.697Z,38.50
2018-04-06T17:48:50.228Z,38.90
2018-04-06T17:51:17.787Z,39.20
2018-04-06T17:53:45.314Z,39.30
2018-04-06T17:56:12.840Z,39.90
2018-04-06T17:58:40.394Z,40.00
2018-04-06T18:01:07.926Z,40.30
2018-04-06T18:03:35.482Z,40.80
2018-04-06T18:06:03.016Z,41.00
2018-04-06T18:08:30.565Z,41.20
2018-04-06T18:10:58.083Z,41.70
2018-04-06T18:13:26.398Z,42.30
2018-04-06T18:15:53.914Z,42.30
2018-04-06T18:18:22.230Z,42.60
2018-04-06T18:20:49.746Z,42.60
2018-04-06T18:23:17.286Z,42.70
2018-04-06T18:25:44.809Z,42.70
2018-04-06T18:28:12.363Z,42.90
2018-04-06T18:30:39.890Z,43.00
2018-04-06T18:33:07.487Z,43.10
2018-04-06T18:35:35.005Z,43.30
2018-04-06T18:38:02.562Z,43.40
2018-04-06T18:40:30.090Z,43.60
2018-04-06T18:42:57.630Z,43.70
2018-04-06T18:45:25.151Z,44.00
2018-04-06T18:47:53.469Z,44.30
2018-04-06T18:50:20.994Z,44.30
2018-04-06T18:52:49.313Z,45.00
2018-04-06T18:55:17.610Z,45.20
2018-04-06T18:57:45.139Z,45.20
2018-04-06T19:00:12.695Z,45.60
2018-04-06T19:02:40.226Z,45.70
2018-04-06T19:05:08.535Z,46.20
2018-04-06T19:07:36.065Z,46.20
2018-04-06T19:10:04.379Z,46.70
2018-04-06T19:12:31.907Z,46.70
2018-04-06T19:15:00.404Z,47.00
2018-04-06T19:17:27.990Z,47.20
2018-04-06T19:19:55.590Z,47.50
2018-04-06T19:22:24.134Z,47.90
2018-04-06T19:24:52.907Z,48.00
2018-04-06T19:27:20.793Z,48.30
2018-04-06T19:29:49.474Z,48.50
2018-04-06T19:32:18.103Z,49.00
2018-04-06T19:34:46.588Z,49.00
2018-04-06T19:37:14.338Z,49.20
2018-04-06T19:39:41.886Z,49.30
2018-04-06T19:42:09.418Z,49.60
2018-04-06T19:44:36.975Z,49.80
2018-04-06T19:47:04.503Z,49.90
2018-04-06T19:49:32.052Z,50.20
2018-04-06T19:51:59.603Z,50.50
2018-04-06T19:54:27.138Z,50.60
2018-04-06T19:56:54.702Z,50.80
2018-04-06T19:59:22.230Z,50.80
2018-04-06T20:01:51.908Z,50.90
2018-04-06T20:04:19.434Z,51.10
2018-04-06T20:06:46.993Z,51.20
2018-04-06T20:09:14.526Z,51.40
2018-04-06T20:11:42.081Z,51.70
2018-04-06T20:14:09.623Z,51.90
2018-04-06T20:16:37.190Z,52.10
2018-04-06T20:19:05.484Z,52.20
2018-04-06T20:21:33.034Z,52.20
2018-04-06T20:24:00.570Z,52.50
2018-04-06T20:26:28.143Z,52.50
2018-04-06T20:28:56.429Z,52.70
2018-04-06T20:31:23.954Z,52.60
2018-04-06T20:33:51.513Z,52.70
2018-04-06T20:36:19.038Z,53.00
2018-04-06T20:38:46.596Z,53.00
2018-04-06T20:41:14.128Z,53.10
2018-04-06T20:43:42.463Z,53.10
2018-04-06T20:46:09.997Z,53.10
2018-04-06T20:48:37.551Z,53.10
2018-04-06T20:51:05.078Z,53.20
2018-04-06T20:53:33.390Z,53.40
2018-04-06T20:56:00.920Z,53.30
2018-04-06T20:58:29.225Z,53.60
2018-04-06T21:00:56.750Z,53.50
2018-04-06T21:03:25.061Z,53.80
2018-04-06T21:05:52.582Z,53.70
2018-04-06T21:08:20.894Z,54.50
2018-04-06T21:10:48.417Z,54.00
2018-04-06T21:13:15.966Z,53.90
2018-04-06T21:15:43.482Z,54.00
2018-04-06T21:18:11.029Z,54.10
2018-04-06T21:20:38.550Z,54.10
2018-04-06T21:23:06.098Z,54.20
2018-04-06T21:25:33.613Z,54.20
2018-04-06T21:28:01.130Z,54.40
2018-04-06T21:30:28.682Z,54.50
2018-04-06T21:32:56.415Z,54.50
2018-04-06T21:35:23.958Z,54.70
2018-04-06T21:37:51.485Z,54.80
2018-04-06T21:40:19.035Z,55.00
2018-04-06T21:42:46.555Z,55.80
2018-04-06T21:45:14.104Z,55.20
2018-04-06T21:47:41.626Z,55.20
2018-04-06T21:50:09.173Z,55.40
2018-04-06T21:52:36.691Z,55.70
2018-04-06T21:55:04.243Z,55.50
2018-04-06T21:57:31.765Z,55.50
2018-04-06T21:59:59.314Z,56.20
2018-04-06T22:02:26.837Z,55.60
2018-04-06T22:04:54.377Z,55.60
2018-04-06T22:07:21.906Z,55.60
2018-04-06T22:09:50.194Z,55.80
2018-04-06T22:12:18.503Z,55.80
2018-04-06T22:14:46.022Z,55.70
2018-04-06T22:17:14.342Z,55.10
2018-04-06T22:19:41.886Z,55.00
2018-04-06T22:22:09.431Z,54.80
2018-04-06T22:24:38.666Z,54.50
2018-04-06T22:27:06.289Z,54.40
2018-04-06T22:29:34.573Z,54.50
2018-04-06T22:32:02.887Z,54.40
2018-04-06T22:34:30.409Z,54.30
2018-04-06T22:36:58.720Z,54.30
2018-04-06T22:39:26.243Z,54.20
2018-04-06T22:41:54.554Z,53.70
2018-04-06T22:44:22.084Z,53.70
2018-04-06T22:46:50.410Z,53.30
2018-04-06T22:49:17.931Z,53.30
2018-04-06T22:51:45.481Z,53.30
2018-04-06T22:54:13.765Z,53.00
2018-04-06T22:56:41.310Z,53.00
2018-04-06T22:59:09.601Z,53.40
2018-04-06T23:01:37.913Z,53.20
2018-04-06T23:04:05.434Z,53.10
2018-04-06T23:06:33.740Z,53.00
2018-04-06T23:09:01.254Z,53.00
2018-04-06T23:11:28.797Z,53.10
2018-04-06T23:13:56.309Z,53.00
2018-04-06T23:16:23.858Z,52.90
2018-04-06T23:18:52.149Z,52.70
2018-04-06T23:21:19.665Z,52.70
2018-04-06T23:23:47.209Z,53.00
2018-04-06T23:26:14.733Z,52.70
2018-04-06T23:28:42.269Z,52.60
2018-04-06T23:31:10.544Z,52.70
2018-04-06T23:33:38.854Z,52.60
2018-04-06T23:36:06.369Z,52.50
2018-04-06T23:38:34.694Z,53.30
2018-04-06T23:41:02.213Z,52.70
2018-04-06T23:43:29.766Z,52.90
2018-04-06T23:45:57.284Z,53.20
2018-04-06T23:48:24.835Z,53.20
2018-04-06T23:50:52.353Z,53.10
2018-04-06T23:53:20.657Z,53.20
2018-04-06T23:55:48.170Z,53.20
2018-04-06T23:58:15.718Z,53.20
